Time;durP1;ratioP1;P1;durP2;ratioP2;P2;SDS_P1;SDS_P2;PMS_P1;PMS_P2;Temp;Humidity;BMP_temperature;BMP_pressure;BME280_temperature;BME280_humidity;BME280_pressure;Samples;Min_cycle;Max_cycle;Signal;HPM_P1;HPM_P2
2022/11/22 00:02:02;;;;;;;7.10;6.40;;;;;;;5.08;100.00;94791.44;4984521;28;20192;-60
2022/11/22 00:04:27;;;;;;;7.03;6.40;;;;;;;5.14;100.00;94787.88;4977194;28;20220;-61
2022/11/22 00:06:53;;;;;;;7.53;6.23;;;;;;;5.16;100.00;94788.44;4978085;28;20268;-61
2022/11/22 00:09:18;;;;;;;6.47;5.87;;;;;;;5.14;100.00;94788.66;4978204;28;20209;-64
2022/11/22 00:11:43;;;;;;;7.30;5.90;;;;;;;5.22;100.00;94774.47;4968865;28;20193;-60
2022/11/22 00:14:09;;;;;;;7.37;6.63;;;;;;;5.36;100.00;94770.47;4976452;28;20243;-61
2022/11/22 00:16:34;;;;;;;7.30;6.57;;;;;;;5.30;100.00;94764.44;4977099;28;20188;-60
2022/11/22 00:19:00;;;;;;;8.03;6.57;;;;;;;5.32;100.00;94772.78;4987071;28;20238;-60
2022/11/22 00:21:25;;;;;;;7.57;6.83;;;;;;;5.39;100.00;94764.81;4971801;28;20184;-60
2022/11/22 00:23:55;;;;;;;6.83;6.07;;;;;;;5.50;100.00;94763.09;4976675;28;20181;-60
2022/11/22 00:26:21;;;;;;;7.47;6.77;;;;;;;5.44;100.00;94751.88;4977759;28;20189;-60
2022/11/22 00:28:46;;;;;;;7.67;6.47;;;;;;;5.36;100.00;94755.66;4984292;28;20715;-60
2022/11/22 00:31:11;;;;;;;9.67;7.17;;;;;;;5.34;100.00;94765.53;4993575;28;20630;-60
2022/11/22 00:33:36;;;;;;;7.13;6.53;;;;;;;5.12;100.00;94763.97;4995464;28;20591;-61
2022/11/22 00:36:02;;;;;;;7.73;7.03;;;;;;;5.32;100.00;94759.00;4993956;28;20194;-61
2022/11/22 00:38:28;;;;;;;8.07;7.27;;;;;;;5.22;100.00;94764.88;4977694;28;20272;-60
2022/11/22 00:40:53;;;;;;;7.03;6.37;;;;;;;5.33;100.00;94763.19;4983564;28;20645;-60
2022/11/22 00:43:18;;;;;;;7.37;6.63;;;;;;;5.24;100.00;94764.66;4994708;28;20258;-60
2022/11/22 00:45:43;;;;;;;7.13;6.50;;;;;;;5.23;100.00;94765.66;4995252;28;20711;-59
2022/11/22 00:48:09;;;;;;;7.20;6.50;;;;;;;5.23;100.00;94768.25;4986220;28;20509;-60
2022/11/22 00:50:34;;;;;;;7.80;7.10;;;;;;;5.21;100.00;94773.69;4990233;28;20723;-59
2022/11/22 00:52:59;;;;;;;7.30;6.63;;;;;;;5.21;100.00;94781.47;4976146;28;20193;-60
2022/11/22 00:55:25;;;;;;;7.20;6.60;;;;;;;5.21;100.00;94781.47;4976211;28;20200;-60
2022/11/22 00:57:50;;;;;;;7.07;6.37;;;;;;;5.13;100.00;94787.09;4984001;28;20519;-60
2022/11/22 01:00:16;;;;;;;6.83;6.20;;;;;;;5.20;100.00;94792.09;4992419;28;20652;-60
2022/11/22 01:02:41;;;;;;;7.23;5.80;;;;;;;5.24;100.00;94793.22;4976080;28;20221;-61
2022/11/22 01:05:07;;;;;;;5.90;5.40;;;;;;;5.26;100.00;94807.50;4975626;28;20622;-60
2022/11/22 01:07:32;;;;;;;7.30;6.60;;;;;;;5.21;100.00;94806.66;4977222;28;20533;-61
2022/11/22 01:09:57;;;;;;;8.10;6.47;;;;;;;5.09;100.00;94811.19;4994546;28;20391;-60
2022/11/22 01:12:23;;;;;;;6.70;6.13;;;;;;;5.16;100.00;94825.56;4988309;28;20764;-60
2022/11/22 01:14:48;;;;;;;7.33;6.57;;;;;;;5.18;100.00;94820.13;4994606;28;20192;-60
2022/11/22 01:17:13;;;;;;;6.13;5.60;;;;;;;5.29;100.00;94827.03;4985313;28;20192;-60
2022/11/22 01:19:39;;;;;;;6.27;5.67;;;;;;;5.26;100.00;94828.28;4995041;28;20633;-60
2022/11/22 01:22:04;;;;;;;9.37;5.43;;;;;;;5.40;100.00;94810.53;4994839;28;20531;-60
2022/11/22 01:24:29;;;;;;;6.20;5.37;;;;;;;5.37;100.00;94817.00;4995074;28;20224;-60
2022/11/22 01:26:55;;;;;;;6.60;6.10;;;;;;;5.36;100.00;94823.22;4995068;28;20207;-60
2022/11/22 01:29:20;;;;;;;6.13;5.67;;;;;;;5.46;100.00;94822.56;4976634;28;20371;-60
2022/11/22 01:31:45;;;;;;;5.63;5.17;;;;;;;5.50;100.00;94828.03;4958465;28;20183;-60
2022/11/22 01:34:11;;;;;;;5.73;5.33;;;;;;;5.43;100.00;94836.03;4975465;28;20653;-61
2022/11/22 01:36:36;;;;;;;6.40;5.77;;;;;;;5.57;100.00;94829.44;4976092;28;20192;-60
2022/11/22 01:39:02;;;;;;;6.13;5.63;;;;;;;5.50;100.00;94846.22;4989896;28;20188;-60
2022/11/22 01:41:27;;;;;;;6.07;5.57;;;;;;;5.46;100.00;94834.75;4979060;28;20199;-60
2022/11/22 01:43:52;;;;;;;6.10;5.40;;;;;;;5.58;100.00;94822.41;4974258;28;20203;-60
2022/11/22 01:46:33;;;;;;;5.60;5.10;;;;;;;5.54;100.00;94823.94;4975576;28;20248;-60
2022/11/22 01:49:10;;;;;;;5.97;5.50;;;;;;;5.57;100.00;94816.44;4988455;28;20179;-61
2022/11/22 01:51:43;;;;;;;6.93;6.43;;;;;;;5.53;100.00;94819.75;4987435;28;20188;-60
2022/11/22 01:54:12;;;;;;;5.90;5.40;;;;;;;5.59;100.00;94823.97;4985625;28;20248;-60
2022/11/22 01:56:40;;;;;;;6.07;5.60;;;;;;;5.47;100.00;94825.91;4986669;28;20177;-59
2022/11/22 01:59:18;;;;;;;6.43;5.53;;;;;;;5.56;100.00;94821.88;4991932;28;20218;-60
2022/11/22 02:01:44;;;;;;;6.53;6.03;;;;;;;5.59;100.00;94832.56;4994124;28;20187;-59
2022/11/22 02:04:12;;;;;;;6.57;6.07;;;;;;;5.63;100.00;94828.44;4976791;28;20246;-60
2022/11/22 02:06:45;;;;;;;6.87;6.27;;;;;;;5.60;100.00;94828.94;4980144;28;20196;-60
2022/11/22 02:09:11;;;;;;;5.90;5.40;;;;;;;5.60;100.00;94843.75;4973520;28;20239;-59
2022/11/22 02:11:42;;;;;;;5.77;5.20;;;;;;;5.66;100.00;94837.56;4974194;28;20196;-61
2022/11/22 02:14:09;;;;;;;6.27;5.27;;;;;;;5.64;100.00;94832.63;4965470;28;20545;-60
2022/11/22 02:16:36;;;;;;;6.20;5.70;;;;;;;5.59;100.00;94829.19;4974935;28;20184;-59
2022/11/22 02:19:01;;;;;;;6.60;5.50;;;;;;;5.64;100.00;94829.22;4990712;28;20192;-61
2022/11/22 02:21:27;;;;;;;5.47;5.07;;;;;;;5.58;100.00;94828.38;4993397;28;20184;-60
2022/11/22 02:24:11;;;;;;;5.33;5.00;;;;;;;5.60;100.00;94826.34;4978440;28;20188;-60
2022/11/22 02:26:36;;;;;;;5.53;5.10;;;;;;;5.67;100.00;94842.53;4974321;28;20187;-60
2022/11/22 02:29:06;;;;;;;5.80;5.30;;;;;;;5.65;100.00;94846.41;4990505;28;20318;-59
2022/11/22 02:31:44;;;;;;;6.23;5.37;;;;;;;5.55;100.00;94852.28;4975745;28;20180;-60
2022/11/22 02:34:10;;;;;;;6.43;5.83;;;;;;;5.53;100.00;94859.50;4990867;28;20183;-60
2022/11/22 02:36:44;;;;;;;7.83;5.87;;;;;;;5.65;100.00;94857.59;4974067;28;20238;-60
2022/11/22 02:39:13;;;;;;;6.80;5.60;;;;;;;5.65;100.00;94859.38;4982295;28;20260;-60
2022/11/22 02:41:39;;;;;;;5.40;4.80;;;;;;;5.54;100.00;94863.69;4993580;28;20191;-60
2022/11/22 02:44:06;;;;;;;10.90;5.80;;;;;;;5.70;100.00;94849.84;4984804;28;20201;-61
2022/11/22 02:46:31;;;;;;;5.27;4.87;;;;;;;5.56;100.00;94864.25;4989436;28;20260;-59
2022/11/22 02:48:57;;;;;;;6.27;5.20;;;;;;;5.57;100.00;94857.22;4974294;28;20192;-59
2022/11/22 02:51:23;;;;;;;5.37;4.97;;;;;;;5.66;100.00;94847.97;4973789;28;20602;-60
2022/11/22 02:53:49;;;;;;;5.77;5.30;;;;;;;5.60;100.00;94848.94;4973735;28;20185;-60
2022/11/22 02:56:15;;;;;;;5.83;5.43;;;;;;;5.58;100.00;94841.38;4982293;28;20535;-60
2022/11/22 02:58:42;;;;;;;5.23;4.93;;;;;;;5.55;100.00;94847.06;4977533;28;20254;-60
2022/11/22 03:01:08;;;;;;;6.33;5.60;;;;;;;5.57;100.00;94855.44;4985901;28;20634;-59
2022/11/22 03:03:34;;;;;;;6.13;5.53;;;;;;;5.55;100.00;94857.47;4992939;28;20184;-59
2022/11/22 03:06:01;;;;;;;5.17;4.70;;;;;;;5.58;100.00;94866.56;4976149;28;20271;-61
2022/11/22 03:08:26;;;;;;;5.63;5.07;;;;;;;5.47;100.00;94862.28;4974086;28;20545;-59
2022/11/22 03:10:52;;;;;;;6.00;5.53;;;;;;;5.57;100.00;94868.41;4974119;28;20201;-60
2022/11/22 03:13:17;;;;;;;5.80;5.37;;;;;;;5.50;100.00;94870.41;4973793;28;20585;-60
2022/11/22 03:15:46;;;;;;;6.43;5.90;;;;;;;5.38;100.00;94870.53;4991286;28;20606;-60
2022/11/22 03:18:11;;;;;;;5.83;5.53;;;;;;;5.36;100.00;94869.97;4992270;28;20592;-60
2022/11/22 03:20:36;;;;;;;6.93;6.43;;;;;;;5.29;100.00;94877.16;4988340;28;20188;-59
2022/11/22 03:23:01;;;;;;;7.03;6.37;;;;;;;5.35;100.00;94876.19;4973481;28;20266;-60
2022/11/22 03:25:27;;;;;;;6.60;6.00;;;;;;;5.30;100.00;94888.31;4991746;28;20176;-59
2022/11/22 03:27:53;;;;;;;7.10;6.60;;;;;;;5.26;100.00;94880.22;4992826;28;20672;-59
2022/11/22 03:30:18;;;;;;;7.17;6.67;;;;;;;5.27;100.00;94881.00;4990527;28;20236;-60
2022/11/22 03:32:43;;;;;;;7.23;6.60;;;;;;;5.39;100.00;94886.88;4991722;28;20540;-59
2022/11/22 03:35:09;;;;;;;6.93;6.33;;;;;;;5.28;100.00;94883.38;4992919;28;20657;-59
2022/11/22 03:37:34;;;;;;;7.17;6.37;;;;;;;5.30;100.00;94885.72;4974522;28;20188;-59
2022/11/22 03:39:59;;;;;;;6.70;6.10;;;;;;;5.26;100.00;94884.63;4973714;28;20599;-60
2022/11/22 03:42:25;;;;;;;6.23;5.83;;;;;;;5.38;100.00;94883.50;4991394;28;20196;-60
2022/11/22 03:44:50;;;;;;;6.63;6.13;;;;;;;5.28;100.00;94885.19;4992689;28;20184;-60
2022/11/22 03:47:15;;;;;;;6.67;6.17;;;;;;;5.23;100.00;94882.53;4992537;28;20192;-60
2022/11/22 03:49:41;;;;;;;6.97;6.40;;;;;;;5.24;100.00;94877.06;4992686;28;20199;-60
2022/11/22 03:52:06;;;;;;;5.93;5.43;;;;;;;5.29;100.00;94871.19;4979974;28;20176;-59
2022/11/22 03:54:31;;;;;;;6.60;6.10;;;;;;;5.17;100.00;94884.28;4973122;28;20196;-59
2022/11/22 03:56:57;;;;;;;6.57;5.93;;;;;;;5.15;100.00;94878.53;4978587;28;20184;-60
2022/11/22 03:59:22;;;;;;;6.57;5.70;;;;;;;5.15;100.00;94881.13;4992453;28;20279;-60
2022/11/22 04:01:48;;;;;;;7.37;6.00;;;;;;;5.18;100.00;94880.66;4993010;28;20657;-60
2022/11/22 04:04:13;;;;;;;6.70;6.20;;;;;;;5.29;100.00;94886.75;4990810;28;20209;-60
2022/11/22 04:06:38;;;;;;;6.63;6.13;;;;;;;5.20;100.00;94883.78;4985192;28;20210;-60
2022/11/22 04:09:04;;;;;;;5.30;5.00;;;;;;;5.18;100.00;94880.66;4992043;28;20239;-60
2022/11/22 04:11:29;;;;;;;8.30;6.73;;;;;;;5.17;100.00;94886.88;4984978;28;20192;-60
2022/11/22 04:16:38;;;;;;;6.70;6.17;;;;;;;5.14;100.00;94886.53;4975584;28;20236;-60
2022/11/22 04:19:04;;;;;;;7.00;6.30;;;;;;;5.13;100.00;94882.38;4987173;28;20220;-59
2022/11/22 04:21:35;;;;;;;6.60;6.00;;;;;;;5.12;100.00;94883.41;4973053;28;20193;-60
2022/11/22 04:26:49;;;;;;;5.57;5.20;;;;;;;5.20;100.00;94893.38;4992128;28;20199;-59
2022/11/22 04:29:15;;;;;;;6.30;5.80;;;;;;;5.12;100.00;94894.59;4976670;28;20236;-59
2022/11/22 04:34:25;;;;;;;7.60;5.97;;;;;;;5.00;100.00;94894.69;4979621;28;20185;-60
2022/11/22 04:36:50;;;;;;;7.00;5.57;;;;;;;4.98;100.00;94896.72;4978038;28;20653;-59
2022/11/22 04:39:16;;;;;;;6.60;6.10;;;;;;;4.99;100.00;94894.91;4995593;28;20302;-60
2022/11/22 04:41:41;;;;;;;8.40;6.30;;;;;;;4.95;100.00;94893.81;4995558;28;20185;-59
2022/11/22 04:46:52;;;;;;;6.50;5.70;;;;;;;4.88;100.00;94890.59;4979638;28;20171;-60
2022/11/22 04:49:17;;;;;;;5.77;5.30;;;;;;;5.04;100.00;94892.38;4990352;28;20292;-59
2022/11/22 04:54:26;;;;;;;6.20;5.67;;;;;;;4.95;100.00;94888.63;4976010;28;20648;-59
2022/11/22 04:56:52;;;;;;;6.00;5.50;;;;;;;4.92;100.00;94886.50;4977838;28;20180;-61
2022/11/22 04:59:17;;;;;;;6.87;5.70;;;;;;;4.83;100.00;94887.94;4975946;28;20238;-60
2022/11/22 05:01:42;;;;;;;7.43;5.47;;;;;;;4.80;100.00;94883.97;4975972;28;20184;-59
2022/11/22 05:04:08;;;;;;;9.23;5.60;;;;;;;4.74;100.00;94891.94;4986695;28;20199;-59
2022/11/22 05:06:33;;;;;;;5.60;4.97;;;;;;;4.70;100.00;94886.44;4986749;28;20191;-59
2022/11/22 05:08:58;;;;;;;6.00;5.50;;;;;;;4.75;100.00;94883.13;4993649;28;20207;-60
2022/11/22 05:11:24;;;;;;;8.40;5.80;;;;;;;4.70;100.00;94894.22;4979730;28;20184;-60
2022/11/22 05:13:49;;;;;;;7.03;5.83;;;;;;;4.70;100.00;94901.22;4994809;28;20703;-60
2022/11/22 05:16:14;;;;;;;5.83;5.30;;;;;;;4.59;100.00;94895.06;4995168;28;20206;-60
2022/11/22 05:18:40;;;;;;;10.00;5.70;;;;;;;4.55;100.00;94909.56;4977675;28;20187;-61
2022/11/22 05:21:11;;;;;;;5.90;5.17;;;;;;;4.56;100.00;94919.69;4993706;28;20286;-60
2022/11/22 05:23:55;;;;;;;7.90;5.97;;;;;;;4.65;100.00;94916.69;4987803;28;20185;-61
2022/11/22 05:26:29;;;;;;;10.73;6.23;;;;;;;4.60;100.00;94920.00;4975670;28;20199;-61
2022/11/22 05:28:56;;;;;;;11.07;5.90;;;;;;;4.70;100.00;94927.94;4975555;28;20240;-63
2022/11/22 05:31:23;;;;;;;8.77;5.57;;;;;;;4.62;100.00;94936.13;4960343;28;20177;-61
2022/11/22 05:33:54;;;;;;;9.50;6.40;;;;;;;4.68;100.00;94919.59;4958207;28;20183;-59
2022/11/22 05:36:20;;;;;;;10.13;5.17;;;;;;;4.72;100.00;94918.13;4961415;28;20185;-59
2022/11/22 05:38:46;;;;;;;8.63;5.80;;;;;;;4.76;100.00;94926.22;4992977;28;20188;-60
2022/11/22 05:41:13;;;;;;;7.63;5.00;;;;;;;4.75;100.00;94927.22;4982858;28;20191;-59
2022/11/22 05:43:39;;;;;;;7.50;5.67;;;;;;;4.86;100.00;94927.16;4957581;28;20177;-59
2022/11/22 05:46:17;;;;;;;8.57;6.07;;;;;;;4.86;100.00;94932.34;4958201;28;20271;-60
2022/11/22 05:48:45;;;;;;;9.20;5.80;;;;;;;4.91;100.00;94924.63;4992385;28;20215;-60
2022/11/22 05:51:12;;;;;;;11.80;5.93;;;;;;;4.91;100.00;94931.63;4976669;28;20192;-61
2022/11/22 05:53:39;;;;;;;9.53;5.77;;;;;;;4.98;100.00;94933.06;4994145;28;20188;-61
2022/11/22 05:56:06;;;;;;;8.40;5.67;;;;;;;5.00;100.00;94935.44;4975858;28;20200;-60
2022/11/22 05:58:32;;;;;;;8.10;5.33;;;;;;;5.03;100.00;94942.72;4990183;28;20279;-59
2022/11/22 06:01:08;;;;;;;7.70;5.57;;;;;;;4.96;100.00;94937.69;4994138;28;20243;-61
2022/11/22 06:03:35;;;;;;;6.00;5.53;;;;;;;5.02;100.00;94944.53;4955654;29;20671;-61
2022/11/22 06:06:00;;;;;;;8.23;5.67;;;;;;;5.01;100.00;94942.19;4964258;28;20232;-59
2022/11/22 06:08:28;;;;;;;9.63;5.87;;;;;;;5.05;100.00;94945.88;4974653;28;20223;-60
2022/11/22 06:10:54;;;;;;;6.90;5.23;;;;;;;5.12;100.00;94943.91;4960798;28;20292;-62
2022/11/22 06:13:19;;;;;;;9.27;5.10;;;;;;;5.07;100.00;94948.25;4987000;28;20284;-60
2022/11/22 06:15:44;;;;;;;9.47;5.67;;;;;;;5.02;100.00;94961.91;4979532;28;20223;-59
2022/11/22 06:18:10;;;;;;;7.87;5.90;;;;;;;5.01;100.00;94957.78;4993933;28;20188;-60
2022/11/22 06:20:35;;;;;;;9.03;4.83;;;;;;;4.97;100.00;94952.25;4993734;28;20192;-59
2022/11/22 06:23:01;;;;;;;7.60;5.70;;;;;;;5.02;100.00;94962.72;4993503;28;20227;-59
2022/11/22 06:25:26;;;;;;;8.73;6.17;;;;;;;4.96;100.00;94960.28;4991797;28;20194;-60
2022/11/22 06:27:51;;;;;;;9.53;4.93;;;;;;;5.07;100.00;94969.78;4974293;28;20181;-60
2022/11/22 06:30:17;;;;;;;6.27;5.27;;;;;;;5.02;100.00;94967.91;4977605;28;20227;-60
2022/11/22 06:32:42;;;;;;;6.60;4.10;;;;;;;4.99;100.00;94967.59;4960555;28;20271;-59
2022/11/22 06:35:08;;;;;;;5.67;4.37;;;;;;;5.03;100.00;94971.28;4974581;28;20193;-59
2022/11/22 06:37:33;;;;;;;8.73;4.50;;;;;;;5.03;100.00;94969.47;4978012;28;20207;-59
2022/11/22 06:39:58;;;;;;;10.10;5.00;;;;;;;5.03;100.00;94976.47;4974555;28;20192;-59
2022/11/22 06:42:24;;;;;;;9.23;4.40;;;;;;;5.00;100.00;94992.53;4985307;28;20754;-59
2022/11/22 06:44:49;;;;;;;7.37;4.53;;;;;;;5.01;100.00;94994.88;4980073;28;20191;-59
2022/11/22 06:47:16;;;;;;;6.50;3.83;;;;;;;5.08;100.00;95002.53;4976829;28;20203;-59
2022/11/22 06:49:41;;;;;;;6.50;4.23;;;;;;;5.15;100.00;95007.56;4974255;28;20200;-61
2022/11/22 06:52:07;;;;;;;7.17;4.70;;;;;;;5.16;100.00;95014.34;4974343;28;20191;-62
2022/11/22 06:54:32;;;;;;;11.17;4.90;;;;;;;5.16;100.00;95027.31;4974304;28;20189;-60
2022/11/22 06:56:57;;;;;;;9.33;4.70;;;;;;;5.15;100.00;95036.13;4986597;28;20259;-64
2022/11/22 06:59:23;;;;;;;7.10;5.73;;;;;;;5.25;100.00;95041.47;4993742;28;20196;-60
2022/11/22 07:01:48;;;;;;;9.87;5.40;;;;;;;5.23;100.00;95041.72;4987979;28;20544;-61
2022/11/22 07:04:13;;;;;;;10.30;5.60;;;;;;;5.15;100.00;95049.91;4993210;28;20265;-61
2022/11/22 07:06:39;;;;;;;7.70;5.07;;;;;;;5.11;100.00;95054.00;4982331;28;20181;-62
2022/11/22 07:09:06;;;;;;;8.77;4.77;;;;;;;5.12;100.00;95055.56;4972681;28;20613;-62
2022/11/22 07:11:33;;;;;;;5.03;4.37;;;;;;;4.98;100.00;95060.25;4964740;28;20185;-61
2022/11/22 07:14:00;;;;;;;8.73;4.23;;;;;;;4.95;100.00;95065.16;4974038;28;20201;-61
2022/11/22 07:16:26;;;;;;;6.70;4.57;;;;;;;5.09;100.00;95065.63;4964790;28;20283;-61
2022/11/22 07:18:51;;;;;;;7.57;4.43;;;;;;;5.07;100.00;95070.28;4993401;28;20271;-60
2022/11/22 07:21:19;;;;;;;9.33;5.07;;;;;;;5.08;100.00;95061.44;4991629;28;20215;-61
2022/11/22 07:23:46;;;;;;;11.17;4.67;;;;;;;5.09;100.00;95069.00;4992518;28;20211;-62
2022/11/22 07:26:13;;;;;;;7.03;4.03;;;;;;;5.10;100.00;95069.81;4991153;28;20187;-62
2022/11/22 07:28:38;;;;;;;8.00;4.93;;;;;;;5.07;100.00;95081.44;4990721;28;20246;-60
2022/11/22 07:31:06;;;;;;;6.27;4.63;;;;;;;5.16;100.00;95079.25;4967904;28;20625;-62
2022/11/22 07:33:31;;;;;;;8.33;5.43;;;;;;;5.26;100.00;95074.22;4992782;28;20279;-61
2022/11/22 07:36:09;;;;;;;5.47;4.83;;;;;;;5.39;100.00;95085.09;4991945;28;20309;-61
2022/11/22 07:38:34;;;;;;;7.47;5.37;;;;;;;5.27;100.00;95084.38;4969354;28;20172;-61
2022/11/22 07:41:00;;;;;;;10.43;5.60;;;;;;;5.33;100.00;95090.44;4991445;28;20203;-61
2022/11/22 07:43:25;;;;;;;7.77;5.53;;;;;;;5.50;100.00;95088.66;4992608;28;20211;-61
2022/11/22 07:45:51;;;;;;;9.27;5.50;;;;;;;5.45;100.00;95098.97;4982661;28;20180;-60
2022/11/22 07:48:16;;;;;;;8.70;5.90;;;;;;;5.34;100.00;95102.41;4950364;28;20607;-61
2022/11/22 07:50:41;;;;;;;8.27;4.70;;;;;;;5.51;100.00;95103.22;4974069;28;20212;-63
2022/11/22 07:53:08;;;;;;;9.80;5.53;;;;;;;5.41;100.00;95108.22;4975336;28;20187;-63
2022/11/22 07:55:34;;;;;;;5.97;5.27;;;;;;;5.47;100.00;95099.50;4973447;28;20195;-63
2022/11/22 07:58:00;;;;;;;5.10;4.40;;;;;;;5.63;100.00;95105.75;4973683;28;20208;-63
2022/11/22 08:00:25;;;;;;;6.20;4.43;;;;;;;5.54;100.00;95101.94;4976961;28;20228;-63
2022/11/22 08:02:51;;;;;;;6.73;3.87;;;;;;;5.62;100.00;95114.56;4977179;28;20231;-62
2022/11/22 08:05:16;;;;;;;6.20;4.80;;;;;;;5.53;100.00;95113.34;4977140;28;20185;-62
2022/11/22 08:07:49;;;;;;;10.20;5.97;;;;;;;5.57;100.00;95109.28;4971422;28;20565;-63
2022/11/22 08:10:15;;;;;;;9.97;6.10;;;;;;;5.46;100.00;95108.34;4974749;28;20213;-63
2022/11/22 08:12:41;;;;;;;8.47;5.27;;;;;;;5.52;100.00;95102.16;4977236;28;20624;-63
2022/11/22 08:15:07;;;;;;;9.50;5.33;;;;;;;5.54;100.00;95102.72;4976683;28;20311;-63
2022/11/22 08:17:32;;;;;;;11.67;7.33;;;;;;;5.68;100.00;95116.22;4975711;28;20195;-63
2022/11/22 08:19:57;;;;;;;9.30;5.53;;;;;;;5.71;100.00;95113.13;4976783;28;20291;-63
2022/11/22 08:22:23;;;;;;;9.43;5.63;;;;;;;5.74;100.00;95110.06;4959604;28;20197;-63
2022/11/22 08:24:48;;;;;;;8.13;5.10;;;;;;;5.79;100.00;95108.34;4978179;28;20180;-63
2022/11/22 08:27:14;;;;;;;9.00;5.27;;;;;;;5.94;100.00;95104.41;4991962;28;20192;-63
2022/11/22 08:29:39;;;;;;;6.43;5.73;;;;;;;5.73;100.00;95106.69;4982579;28;20231;-63
2022/11/22 08:32:04;;;;;;;11.40;6.60;;;;;;;5.84;100.00;95094.63;4995804;28;20219;-63
2022/11/22 08:34:29;;;;;;;10.33;6.60;;;;;;;5.90;100.00;95085.91;4982816;28;20189;-64
2022/11/22 08:36:55;;;;;;;10.03;8.43;;;;;;;5.77;100.00;95102.56;4987500;28;20204;-65
2022/11/22 08:39:21;;;;;;;15.17;12.07;;;;;;;6.06;100.00;95092.09;4979825;28;20195;-64
2022/11/22 08:41:47;;;;;;;11.93;10.77;;;;;;;5.97;100.00;95104.69;4987310;28;20189;-64
2022/11/22 08:44:12;;;;;;;8.33;7.63;;;;;;;5.99;100.00;95094.84;4976907;28;20180;-64
2022/11/22 08:46:37;;;;;;;12.40;7.23;;;;;;;6.14;100.00;95095.06;4979214;28;20192;-64
2022/11/22 08:49:05;;;;;;;11.90;6.70;;;;;;;6.24;100.00;95094.41;4975720;28;20189;-64
2022/11/22 08:51:31;;;;;;;6.30;5.70;;;;;;;6.14;100.00;95086.47;4976021;28;20308;-64
2022/11/22 08:53:57;;;;;;;9.07;5.13;;;;;;;6.21;100.00;95089.69;4981833;28;20582;-63
2022/11/22 08:56:22;;;;;;;8.60;4.47;;;;;;;6.22;100.00;95086.84;4980176;28;20185;-63
2022/11/22 08:58:47;;;;;;;7.07;6.37;;;;;;;6.39;100.00;95083.41;4987944;28;20605;-63
2022/11/22 09:01:14;;;;;;;5.90;5.03;;;;;;;6.48;100.00;95085.34;4978103;28;20192;-64
2022/11/22 09:03:41;;;;;;;8.20;4.80;;;;;;;6.40;100.00;95074.56;4975934;28;20521;-63
2022/11/22 09:06:09;;;;;;;7.10;5.13;;;;;;;6.60;100.00;95067.78;4980876;28;20192;-63
2022/11/22 09:08:36;;;;;;;4.93;4.50;;;;;;;6.48;100.00;95072.31;4975896;28;20188;-63
2022/11/22 09:11:12;;;;;;;6.60;5.97;;;;;;;6.68;100.00;95071.78;4975180;28;20219;-63
2022/11/22 09:13:38;;;;;;;9.60;7.00;;;;;;;6.74;100.00;95073.41;4975699;28;20189;-63
2022/11/22 09:16:05;;;;;;;11.10;10.17;;;;;;;6.72;100.00;95077.28;4965221;28;20188;-63
2022/11/22 09:18:31;;;;;;;7.23;6.73;;;;;;;6.84;100.00;95070.91;4987399;28;20191;-63
2022/11/22 09:21:01;;;;;;;196.80;182.67;;;;;;;6.74;100.00;95072.63;4994431;28;20192;-63
2022/11/22 09:23:26;;;;;;;12.77;11.77;;;;;;;7.03;100.00;95081.75;4992583;28;20188;-63
2022/11/22 09:25:59;;;;;;;10.03;8.67;;;;;;;6.97;100.00;95082.72;4994510;28;20192;-63
2022/11/22 09:28:26;;;;;;;7.53;6.93;;;;;;;7.01;100.00;95084.63;4992427;28;20192;-63
2022/11/22 09:31:02;;;;;;;7.83;5.17;;;;;;;7.11;100.00;95091.75;4979544;28;20282;-64
2022/11/22 09:33:29;;;;;;;6.60;4.40;;;;;;;6.94;100.00;95104.06;4988315;28;20180;-64
2022/11/22 09:36:01;;;;;;;8.40;4.67;;;;;;;7.08;100.00;95116.44;4973436;28;20200;-63
2022/11/22 09:38:28;;;;;;;6.30;4.50;;;;;;;7.22;100.00;95116.84;4976665;28;20230;-63
2022/11/22 09:40:53;;;;;;;7.00;5.10;;;;;;;7.15;100.00;95118.88;4975496;28;20304;-63
2022/11/22 09:43:25;;;;;;;5.27;4.60;;;;;;;7.12;100.00;95121.19;4994170;28;20212;-63
2022/11/22 09:46:10;;;;;;;7.53;4.67;;;;;;;7.20;100.00;95118.91;4992718;28;20626;-63
2022/11/22 09:48:43;;;;;;;10.67;6.93;;;;;;;7.08;100.00;95124.25;4990724;28;20933;-62
2022/11/22 09:51:14;;;;;;;11.83;5.73;;;;;;;7.33;100.00;95125.56;4992277;28;20218;-63
2022/11/22 09:54:02;;;;;;;8.23;5.63;;;;;;;7.26;100.00;95127.56;4980302;28;20188;-64
2022/11/22 09:56:28;;;;;;;7.10;6.43;;;;;;;7.22;100.00;95129.09;4985184;28;20194;-63
2022/11/22 09:58:59;;;;;;;7.00;4.40;;;;;;;7.00;100.00;95135.13;4981177;28;20552;-63
2022/11/22 10:01:24;;;;;;;59.53;55.57;;;;;;;7.18;100.00;95134.03;4974948;28;20212;-62
2022/11/22 10:04:09;;;;;;;8.90;5.10;;;;;;;7.16;100.00;95135.28;4974721;28;20208;-62
2022/11/22 10:06:41;;;;;;;5.30;4.13;;;;;;;7.20;100.00;95139.75;4978670;28;20591;-62
2022/11/22 10:09:13;;;;;;;10.27;8.33;;;;;;;7.17;100.00;95142.88;4973710;28;20196;-63
2022/11/22 10:11:55;;;;;;;9.60;8.57;;;;;;;7.12;100.00;95144.63;4993062;28;20658;-63
2022/11/22 10:14:48;;;;;;;10.17;9.13;;;;;;;7.10;100.00;95144.88;4992269;28;20179;-63
2022/11/22 10:17:16;;;;;;;11.90;10.67;;;;;;;7.22;100.00;95152.53;4976509;28;20243;-62
2022/11/22 10:19:55;;;;;;;5.60;5.10;;;;;;;7.30;100.00;95154.72;4958881;28;20553;-63
2022/11/22 10:22:20;;;;;;;9.23;8.47;;;;;;;7.25;100.00;95152.84;4982437;28;20205;-62
2022/11/22 10:24:46;;;;;;;6.80;5.10;;;;;;;7.39;100.00;95153.25;4975496;28;20229;-62
2022/11/22 10:27:14;;;;;;;8.30;5.83;;;;;;;7.17;100.00;95161.09;4991481;28;20203;-63
2022/11/22 10:29:46;;;;;;;8.90;5.67;;;;;;;7.10;100.00;95157.91;4977305;28;20236;-62
2022/11/22 10:32:35;;;;;;;6.13;5.07;;;;;;;7.18;100.00;95160.06;4986699;28;20191;-63
2022/11/22 10:35:00;;;;;;;5.33;4.37;;;;;;;7.30;100.00;95157.34;4952735;28;20204;-62
2022/11/22 10:37:44;;;;;;;7.13;4.63;;;;;;;7.34;100.00;95159.19;4987837;28;20183;-62
2022/11/22 10:40:32;;;;;;;5.83;4.50;;;;;;;7.34;100.00;95164.41;4993402;28;20211;-62
2022/11/22 10:43:26;;;;;;;8.50;4.37;;;;;;;7.39;100.00;95164.44;4991430;28;20328;-62
2022/11/22 10:46:10;;;;;;;7.17;4.50;;;;;;;7.56;100.00;95164.34;4993020;28;20528;-62
2022/11/22 10:49:00;;;;;;;8.53;7.80;;;;;;;7.31;100.00;95172.69;4977513;28;20211;-62
2022/11/22 10:51:37;;;;;;;10.00;5.50;;;;;;;7.32;100.00;95166.47;4982640;28;20258;-62
2022/11/22 10:54:16;;;;;;;5.97;5.10;;;;;;;7.30;100.00;95165.91;4975545;28;20199;-63
2022/11/22 10:56:49;;;;;;;13.17;6.80;;;;;;;7.32;100.00;95165.66;4973354;28;20187;-63
2022/11/22 10:59:25;;;;;;;5.83;4.60;;;;;;;7.48;100.00;95164.78;4983568;28;20240;-63
2022/11/22 11:02:13;;;;;;;8.87;7.87;;;;;;;7.56;100.00;95166.16;4964580;28;20179;-62
2022/11/22 11:04:41;;;;;;;10.67;8.20;;;;;;;7.53;98.73;95154.41;4992725;28;20546;-61
2022/11/22 11:07:15;;;;;;;8.87;7.97;;;;;;;7.41;99.20;95164.97;4986467;28;20203;-61
2022/11/22 11:09:45;;;;;;;12.67;11.67;;;;;;;7.45;96.16;95160.88;4983814;28;20700;-61
2022/11/22 11:12:19;;;;;;;8.33;7.63;;;;;;;7.53;96.99;95160.41;4961074;28;20200;-60
2022/11/22 11:14:49;;;;;;;11.60;7.00;;;;;;;7.57;97.00;95154.72;4971395;28;20641;-61
2022/11/22 11:17:25;;;;;;;6.87;5.73;;;;;;;7.43;97.36;95160.31;4987410;28;20183;-61
2022/11/22 11:19:53;;;;;;;4.67;3.87;;;;;;;7.34;99.71;95153.97;4960889;28;20172;-61
2022/11/22 11:22:23;;;;;;;7.80;7.07;;;;;;;7.62;96.89;95146.94;4979050;28;20526;-61
2022/11/22 11:24:48;;;;;;;6.07;5.47;;;;;;;7.79;96.36;95152.81;4974863;28;20670;-61
2022/11/22 11:27:17;;;;;;;5.63;5.00;;;;;;;7.79;96.20;95145.78;4988290;28;20180;-60
2022/11/22 11:29:50;;;;;;;6.47;4.83;;;;;;;7.82;96.22;95144.47;4989698;28;20709;-60
2022/11/22 11:32:18;;;;;;;5.40;4.53;;;;;;;7.87;94.96;95142.69;4959299;28;20181;-61
2022/11/22 11:34:53;;;;;;;8.40;5.60;;;;;;;7.75;96.81;95142.06;4959481;28;20192;-61
2022/11/22 11:37:37;;;;;;;32.63;28.73;;;;;;;7.80;95.02;95133.53;4985015;28;20192;-61
2022/11/22 11:40:05;;;;;;;6.57;4.90;;;;;;;7.75;93.24;95138.69;4982390;28;20188;-60
2022/11/22 11:42:33;;;;;;;10.83;5.43;;;;;;;7.92;93.18;95132.28;4970161;28;20246;-60
2022/11/22 11:45:20;;;;;;;11.60;10.53;;;;;;;7.71;91.88;95132.41;4994478;28;20180;-60
2022/11/22 11:47:45;;;;;;;11.97;10.97;;;;;;;7.84;91.44;95130.16;4981656;28;20553;-61
2022/11/22 11:50:37;;;;;;;10.57;9.63;;;;;;;7.77;92.74;95126.19;4991259;28;20208;-60